createdAt,value
2024-01-11T00:00:44.595Z,4.68
2024-01-11T00:03:32.231Z,4.32
2024-01-11T00:06:02.373Z,4.65
2024-01-11T00:08:30.010Z,4.50
2024-01-11T00:10:57.890Z,4.80
2024-01-11T00:13:25.513Z,4.68
2024-01-11T00:15:54.190Z,5.15
2024-01-11T00:18:21.899Z,4.00
2024-01-11T00:20:49.790Z,5.00
2024-01-11T00:23:17.410Z,4.75
2024-01-11T00:25:45.376Z,5.03
2024-01-11T00:28:12.942Z,4.97
2024-01-11T00:30:40.899Z,4.13
2024-01-11T00:33:08.626Z,4.70
2024-01-11T00:35:36.751Z,4.95
2024-01-11T00:38:04.509Z,4.93
2024-01-11T00:40:32.542Z,4.45
2024-01-11T00:43:00.167Z,4.40
2024-01-11T00:45:28.022Z,5.38
2024-01-11T00:47:55.669Z,4.88
2024-01-11T00:50:23.612Z,5.20
2024-01-11T00:52:51.279Z,4.68
2024-01-11T00:55:19.197Z,5.40
2024-01-11T00:57:46.822Z,4.93
2024-01-11T01:00:17.545Z,5.13
2024-01-11T01:02:45.212Z,5.17
2024-01-11T01:05:13.216Z,4.63
2024-01-11T01:07:41.778Z,4.95
2024-01-11T01:10:10.231Z,4.90
2024-01-11T01:12:37.848Z,5.20
2024-01-11T01:15:06.233Z,5.13
2024-01-11T01:17:34.043Z,5.05
2024-01-11T01:20:02.110Z,5.57
2024-01-11T01:22:29.854Z,5.65
2024-01-11T01:24:58.108Z,5.63
2024-01-11T01:27:25.722Z,5.10
2024-01-11T01:29:53.516Z,5.25
2024-01-11T01:32:21.237Z,5.07
2024-01-11T01:34:49.197Z,5.80
2024-01-11T01:37:16.875Z,4.80
2024-01-11T01:39:44.833Z,5.78
2024-01-11T01:42:12.361Z,4.78
2024-01-11T01:44:42.386Z,4.82
2024-01-11T01:47:11.603Z,5.38
2024-01-11T01:49:40.153Z,5.35
2024-01-11T01:52:09.138Z,5.32
2024-01-11T01:54:37.024Z,5.18
2024-01-11T01:57:05.403Z,5.45
2024-01-11T01:59:33.325Z,5.85
2024-01-11T02:02:01.288Z,5.38
2024-01-11T02:04:29.249Z,5.70
2024-01-11T02:06:58.791Z,5.40
2024-01-11T02:09:27.583Z,4.65
2024-01-11T02:11:55.962Z,5.88
2024-01-11T02:14:24.086Z,5.65
2024-01-11T02:16:51.700Z,5.60
2024-01-11T02:19:21.202Z,5.82
2024-01-11T02:21:53.475Z,5.60
2024-01-11T02:24:21.751Z,5.38
2024-01-11T02:27:05.959Z,5.88
2024-01-11T02:29:34.032Z,5.60
2024-01-11T02:32:03.707Z,5.32
2024-01-11T02:34:32.099Z,5.25
2024-01-11T02:36:59.812Z,5.43
2024-01-11T02:39:27.800Z,5.30
2024-01-11T02:41:59.233Z,5.75
2024-01-11T02:44:27.352Z,5.72
2024-01-11T02:46:55.009Z,6.10
2024-01-11T02:49:23.084Z,5.90
2024-01-11T02:51:50.719Z,6.15
2024-01-11T02:54:18.600Z,5.78
2024-01-11T02:56:46.261Z,5.65
2024-01-11T02:59:14.172Z,5.43
2024-01-11T03:01:41.818Z,5.75
2024-01-11T03:04:09.656Z,5.63
2024-01-11T03:06:37.260Z,5.93
2024-01-11T03:09:05.147Z,6.18
2024-01-11T03:11:32.719Z,6.45
2024-01-11T03:14:00.791Z,6.22
2024-01-11T03:16:28.626Z,6.65
2024-01-11T03:18:56.654Z,6.65
2024-01-11T03:21:24.395Z,6.05
2024-01-11T03:23:52.275Z,6.32
2024-01-11T03:26:20.581Z,5.97
2024-01-11T03:28:48.481Z,6.10
2024-01-11T03:31:16.020Z,7.20
2024-01-11T03:33:43.968Z,6.20
2024-01-11T03:36:12.799Z,5.55
2024-01-11T03:38:40.751Z,6.95
2024-01-11T03:41:12.034Z,6.53
2024-01-11T03:43:40.393Z,5.90
2024-01-11T03:46:07.961Z,7.15
2024-01-11T03:48:38.687Z,6.88
2024-01-11T03:51:07.708Z,6.90
2024-01-11T03:53:39.141Z,7.30
2024-01-11T03:58:36.524Z,6.30
2024-01-11T04:01:04.344Z,6.72
2024-01-11T04:03:33.247Z,7.25
2024-01-11T04:06:00.978Z,8.30
2024-01-11T04:08:28.996Z,6.55
2024-01-11T04:10:56.638Z,7.05
2024-01-11T04:13:25.545Z,6.85
2024-01-11T04:15:53.191Z,7.85
2024-01-11T04:18:21.335Z,7.18
2024-01-11T04:20:49.007Z,7.55
2024-01-11T04:23:16.863Z,8.07
2024-01-11T04:25:44.500Z,7.18
2024-01-11T04:28:12.409Z,6.70
2024-01-11T04:30:40.019Z,7.90
2024-01-11T04:33:08.012Z,7.38
2024-01-11T04:35:35.762Z,7.70
2024-01-11T04:38:04.279Z,8.02
2024-01-11T04:40:31.862Z,7.20
2024-01-11T04:42:59.746Z,6.65
2024-01-11T04:45:27.327Z,7.28
2024-01-11T04:47:55.554Z,7.30
2024-01-11T04:50:23.602Z,6.90
2024-01-11T04:52:51.664Z,6.68
2024-01-11T04:55:19.685Z,6.97
2024-01-11T04:57:47.655Z,6.10
2024-01-11T05:00:15.562Z,6.47
2024-01-11T05:02:43.421Z,6.68
2024-01-11T05:05:11.071Z,6.47
2024-01-11T05:07:38.915Z,8.07
2024-01-11T05:10:07.084Z,6.68
2024-01-11T05:12:34.970Z,7.10
2024-01-11T05:15:02.575Z,7.10
2024-01-11T05:17:31.567Z,6.80
2024-01-11T05:19:59.216Z,6.30
2024-01-11T05:22:27.006Z,7.50
2024-01-11T05:24:54.571Z,6.50
2024-01-11T05:27:22.370Z,6.30
2024-01-11T05:29:50.012Z,6.82
2024-01-11T05:32:18.084Z,7.70
2024-01-11T05:34:45.839Z,7.28
2024-01-11T05:37:13.757Z,7.85
2024-01-11T05:39:41.390Z,6.57
2024-01-11T05:42:09.388Z,7.05
2024-01-11T05:44:37.031Z,7.05
2024-01-11T05:47:04.939Z,7.15
2024-01-11T05:49:32.527Z,7.20
2024-01-11T05:52:00.400Z,6.30
2024-01-11T05:54:29.267Z,6.10
2024-01-11T05:56:59.040Z,7.25
2024-01-11T05:59:27.302Z,6.22
2024-01-11T06:01:55.173Z,6.82
2024-01-11T06:04:22.730Z,7.80
2024-01-11T06:06:50.621Z,7.38
2024-01-11T06:09:18.210Z,6.97
2024-01-11T06:11:46.186Z,7.32
2024-01-11T06:14:13.852Z,6.93
2024-01-11T06:16:42.087Z,7.57
2024-01-11T06:19:10.452Z,6.57
2024-01-11T06:21:38.464Z,7.00
2024-01-11T06:24:06.134Z,7.47
2024-01-11T06:26:34.098Z,7.70
2024-01-11T06:29:01.678Z,7.97
2024-01-11T06:31:29.529Z,7.32
2024-01-11T06:33:57.342Z,8.15
2024-01-11T06:36:25.167Z,7.65
2024-01-11T06:38:52.697Z,7.93
2024-01-11T06:41:20.566Z,8.65
2024-01-11T06:43:48.517Z,7.65
2024-01-11T06:46:22.071Z,8.25
2024-01-11T06:48:50.489Z,8.85
2024-01-11T06:51:22.683Z,8.75
2024-01-11T06:53:50.875Z,7.40
2024-01-11T06:56:20.875Z,8.38
2024-01-11T06:58:48.745Z,8.18
2024-01-11T07:01:16.716Z,7.28
2024-01-11T07:03:45.605Z,7.53
2024-01-11T07:06:13.731Z,9.00
2024-01-11T07:08:41.390Z,7.60
2024-01-11T07:11:09.292Z,8.05
2024-01-11T07:13:36.871Z,8.52
2024-01-11T07:16:05.172Z,8.20
2024-01-11T07:18:32.965Z,7.38
2024-01-11T07:21:01.161Z,8.30
2024-01-11T07:23:29.135Z,8.02
2024-01-11T07:25:57.137Z,7.65
2024-01-11T07:28:26.807Z,8.20
2024-01-11T07:30:54.908Z,7.45
2024-01-11T07:33:22.726Z,6.63
2024-01-11T07:35:51.097Z,7.20
2024-01-11T07:38:18.723Z,7.63
2024-01-11T07:40:46.526Z,7.35
2024-01-11T07:43:15.153Z,6.55
2024-01-11T07:45:42.985Z,6.20
2024-01-11T07:48:10.682Z,6.80
2024-01-11T07:50:38.714Z,7.10
2024-01-11T07:53:06.504Z,8.45
2024-01-11T07:55:34.487Z,7.75
2024-01-11T07:58:02.030Z,7.03
2024-01-11T08:00:29.952Z,6.10
2024-01-11T08:02:57.684Z,6.90
2024-01-11T08:05:26.297Z,6.38
2024-01-11T08:07:53.960Z,5.88
2024-01-11T08:10:21.813Z,5.38
2024-01-11T08:12:49.383Z,6.07
2024-01-11T08:15:17.778Z,5.85
2024-01-11T08:20:14.535Z,4.80
2024-01-11T08:22:45.157Z,5.22
2024-01-11T08:25:14.222Z,5.05
2024-01-11T08:27:41.966Z,4.45
2024-01-11T08:30:09.936Z,4.70
2024-01-11T08:32:40.614Z,3.65
2024-01-11T08:35:13.207Z,4.90
2024-01-11T08:37:41.240Z,4.03
2024-01-11T08:40:10.705Z,3.38
2024-01-11T08:42:39.156Z,4.10
2024-01-11T08:45:08.294Z,4.10
2024-01-11T08:47:36.419Z,3.83
2024-01-11T08:50:07.327Z,3.58
2024-01-11T08:52:35.162Z,3.63
2024-01-11T08:55:02.785Z,3.50
2024-01-11T08:57:31.006Z,4.53
2024-01-11T08:59:58.740Z,3.38
2024-01-11T09:02:27.710Z,4.00
2024-01-11T09:04:55.498Z,3.58
2024-01-11T09:07:23.382Z,3.35
2024-01-11T09:09:56.537Z,4.55
2024-01-11T09:12:25.403Z,4.07
2024-01-11T09:14:53.175Z,3.85
2024-01-11T09:17:21.476Z,3.60
2024-01-11T09:19:49.188Z,4.00
2024-01-11T09:22:17.805Z,3.50
2024-01-11T09:24:45.418Z,3.63
2024-01-11T09:27:13.417Z,4.10
2024-01-11T09:29:45.573Z,3.80
2024-01-11T09:32:14.258Z,4.35
2024-01-11T09:34:42.134Z,4.45
2024-01-11T09:37:10.100Z,4.05
2024-01-11T09:39:37.752Z,4.65
2024-01-11T09:42:13.181Z,4.47
2024-01-11T09:44:42.800Z,4.05
2024-01-11T09:47:16.028Z,3.80
2024-01-11T09:49:46.200Z,4.30
2024-01-11T09:52:16.565Z,4.55
2024-01-11T09:54:44.272Z,4.70
2024-01-11T09:57:12.406Z,4.97
2024-01-11T09:59:41.291Z,4.70
2024-01-11T10:02:12.357Z,4.40
2024-01-11T10:04:41.908Z,4.18
2024-01-11T10:07:10.980Z,4.88
2024-01-11T10:09:38.825Z,4.32
2024-01-11T10:12:07.264Z,4.97
2024-01-11T10:14:35.116Z,5.00
2024-01-11T10:17:03.102Z,4.40
2024-01-11T10:19:30.883Z,5.07
2024-01-11T10:22:02.484Z,4.30
2024-01-11T10:24:30.706Z,4.55
2024-01-11T10:27:01.100Z,4.45
2024-01-11T10:29:32.607Z,4.57
2024-01-11T10:32:00.740Z,4.55
2024-01-11T10:34:28.588Z,4.65
2024-01-11T10:36:57.355Z,4.55
2024-01-11T10:39:26.880Z,5.20
2024-01-11T10:42:08.618Z,4.70
2024-01-11T10:44:37.468Z,4.47
2024-01-11T10:47:08.509Z,4.63
2024-01-11T10:49:41.997Z,4.93
2024-01-11T10:52:13.561Z,5.38
2024-01-11T10:54:42.825Z,4.32
2024-01-11T10:57:11.279Z,4.32
2024-01-11T10:59:41.566Z,4.28
2024-01-11T11:02:14.123Z,4.55
2024-01-11T11:04:43.742Z,4.55
2024-01-11T11:07:13.379Z,4.32
2024-01-11T11:09:45.163Z,4.63
2024-01-11T11:12:15.130Z,4.10
2024-01-11T11:14:45.213Z,4.50
2024-01-11T11:17:15.995Z,4.47
2024-01-11T11:19:43.882Z,4.25
2024-01-11T11:22:14.799Z,5.50
2024-01-11T11:24:43.018Z,4.95
2024-01-11T11:27:14.791Z,4.60
2024-01-11T11:32:12.046Z,5.60
2024-01-11T11:34:46.530Z,4.43
2024-01-11T11:37:24.632Z,4.30
2024-01-11T11:39:52.613Z,3.88
2024-01-11T11:42:23.862Z,4.00
2024-01-11T11:44:52.844Z,4.25
2024-01-11T11:47:25.304Z,4.50
2024-01-11T11:50:06.767Z,3.88
2024-01-11T11:52:36.516Z,3.75
2024-01-11T11:55:06.083Z,4.22
2024-01-11T11:57:35.640Z,4.43
2024-01-11T12:00:07.102Z,4.97
2024-01-11T12:02:41.915Z,3.80
2024-01-11T12:05:09.736Z,3.70
2024-01-11T12:07:37.893Z,3.70
2024-01-11T12:10:07.676Z,3.60
2024-01-11T12:12:37.326Z,3.75
2024-01-11T12:15:06.150Z,3.17
2024-01-11T12:17:34.242Z,3.25
2024-01-11T12:20:02.022Z,3.63
2024-01-11T12:22:29.997Z,3.28
2024-01-11T12:24:57.655Z,3.40
2024-01-11T12:27:25.703Z,2.70
2024-01-11T12:29:58.888Z,3.20
2024-01-11T12:32:28.318Z,2.75
2024-01-11T12:34:57.119Z,2.92
2024-01-11T12:37:25.061Z,3.17
2024-01-11T12:40:00.032Z,3.22
2024-01-11T12:42:30.764Z,3.05
2024-01-11T12:44:59.636Z,2.88
2024-01-11T12:47:28.897Z,2.95
2024-01-11T12:49:57.223Z,2.90
2024-01-11T12:52:26.849Z,3.20
2024-01-11T12:54:54.541Z,3.17
2024-01-11T12:57:22.637Z,2.72
2024-01-11T12:59:50.400Z,3.20
2024-01-11T13:02:20.383Z,3.53
2024-01-11T13:04:48.599Z,3.60
2024-01-11T13:07:17.088Z,3.10
2024-01-11T13:09:44.736Z,3.30
2024-01-11T13:12:12.672Z,3.30
2024-01-11T13:14:41.705Z,2.90
2024-01-11T13:17:09.847Z,2.90
2024-01-11T13:19:37.567Z,2.63
2024-01-11T13:22:05.425Z,3.00
2024-01-11T13:24:33.076Z,3.40
2024-01-11T13:27:00.933Z,3.17
2024-01-11T13:29:28.725Z,3.28
2024-01-11T13:31:56.642Z,2.92
2024-01-11T13:34:24.465Z,3.25
2024-01-11T13:36:52.350Z,3.25
2024-01-11T13:39:21.444Z,3.38
2024-01-11T13:41:49.387Z,2.60
2024-01-11T13:44:17.062Z,2.30
2024-01-11T13:46:45.185Z,2.60
2024-01-11T13:49:13.067Z,2.25
2024-01-11T13:51:50.028Z,3.25
2024-01-11T13:54:24.182Z,3.00
2024-01-11T13:56:55.058Z,3.45
2024-01-11T13:59:22.790Z,3.33
2024-01-11T14:01:50.721Z,3.67
2024-01-11T14:04:18.319Z,2.90
2024-01-11T14:06:46.341Z,3.45
2024-01-11T14:09:14.079Z,3.00
2024-01-11T14:11:41.986Z,2.90
2024-01-11T14:14:10.198Z,2.47
2024-01-11T14:16:38.210Z,3.05
2024-01-11T14:19:05.966Z,2.65
2024-01-11T14:21:33.885Z,3.17
2024-01-11T14:24:01.432Z,3.25
2024-01-11T14:26:29.361Z,3.30
2024-01-11T14:28:57.606Z,2.67
2024-01-11T14:31:25.473Z,3.20
2024-01-11T14:33:53.164Z,3.17
2024-01-11T14:36:21.568Z,3.20
2024-01-11T14:38:49.185Z,2.75
2024-01-11T14:41:17.157Z,2.45
2024-01-11T14:43:44.719Z,3.00
2024-01-11T14:46:12.796Z,3.03
2024-01-11T14:48:40.596Z,2.75
2024-01-11T14:51:09.348Z,2.20
2024-01-11T14:53:37.028Z,2.50
2024-01-11T14:56:05.347Z,2.80
2024-01-11T14:58:33.233Z,2.50
2024-01-11T15:01:01.155Z,3.00
2024-01-11T15:03:29.086Z,3.03
2024-01-11T15:05:57.380Z,3.15
2024-01-11T15:08:25.104Z,2.35
2024-01-11T15:10:53.049Z,2.50
2024-01-11T15:13:20.655Z,2.78
2024-01-11T15:15:48.738Z,2.60
2024-01-11T15:18:16.580Z,2.65
2024-01-11T15:20:44.586Z,2.83
2024-01-11T15:23:12.585Z,2.88
2024-01-11T15:25:40.443Z,2.95
2024-01-11T15:28:08.249Z,2.67
2024-01-11T15:30:36.142Z,2.80
2024-01-11T15:33:05.102Z,3.40
2024-01-11T15:35:33.581Z,3.40
2024-01-11T15:38:01.444Z,2.78
2024-01-11T15:40:29.436Z,3.45
2024-01-11T15:43:04.771Z,3.20
2024-01-11T15:45:34.587Z,3.13
2024-01-11T15:48:03.610Z,3.25
2024-01-11T15:50:32.860Z,3.13
2024-01-11T15:53:00.503Z,3.50
2024-01-11T15:55:28.506Z,3.53
2024-01-11T15:58:02.473Z,3.13
2024-01-11T16:00:32.060Z,3.20
2024-01-11T16:02:59.680Z,3.25
2024-01-11T16:05:27.816Z,3.53
2024-01-11T16:07:55.393Z,3.05
2024-01-11T16:10:23.594Z,3.13
2024-01-11T16:12:51.173Z,3.05
2024-01-11T16:15:19.114Z,3.42
2024-01-11T16:17:46.755Z,2.90
2024-01-11T16:20:14.798Z,3.22
2024-01-11T16:22:42.368Z,3.20
2024-01-11T16:25:10.478Z,3.30
2024-01-11T16:27:38.778Z,3.00
2024-01-11T16:30:07.635Z,3.45
2024-01-11T16:32:35.649Z,4.72
2024-01-11T16:35:03.802Z,3.50
2024-01-11T16:37:32.180Z,3.15
2024-01-11T16:40:00.144Z,3.58
2024-01-11T16:42:29.293Z,3.30
2024-01-11T16:44:57.436Z,3.83
2024-01-11T16:47:25.068Z,3.45
2024-01-11T16:49:52.986Z,3.70
2024-01-11T16:52:21.717Z,3.65
2024-01-11T16:54:49.549Z,3.90
2024-01-11T16:57:17.141Z,3.92
2024-01-11T16:59:45.042Z,4.93
2024-01-11T17:02:12.641Z,4.43
2024-01-11T17:04:41.531Z,4.95
2024-01-11T17:07:10.672Z,4.07
2024-01-11T17:09:39.320Z,7.15
2024-01-11T17:12:07.532Z,4.32
2024-01-11T17:14:35.397Z,4.25
2024-01-11T17:17:08.029Z,5.15
2024-01-11T17:19:36.196Z,4.00
2024-01-11T17:22:03.844Z,4.18
2024-01-11T17:24:32.941Z,4.47
2024-01-11T17:27:05.151Z,4.50
2024-01-11T17:29:33.018Z,4.32
2024-01-11T17:32:00.693Z,4.63
2024-01-11T17:34:28.871Z,4.47
2024-01-11T17:36:56.454Z,4.40
2024-01-11T17:39:24.302Z,4.45
2024-01-11T17:41:52.131Z,4.95
2024-01-11T17:44:21.984Z,5.57
2024-01-11T17:46:49.556Z,4.60
2024-01-11T17:49:17.573Z,4.70
2024-01-11T17:51:47.069Z,5.50
2024-01-11T17:54:14.903Z,5.22
2024-01-11T17:56:42.803Z,5.38
2024-01-11T17:59:11.110Z,5.45
2024-01-11T18:01:38.726Z,6.00
2024-01-11T18:04:08.077Z,5.85
2024-01-11T18:06:36.034Z,6.85
2024-01-11T18:09:04.617Z,8.25
2024-01-11T18:11:32.512Z,7.15
2024-01-11T18:14:00.439Z,6.38
2024-01-11T18:16:28.216Z,6.57
2024-01-11T18:18:56.204Z,6.35
2024-01-11T18:21:23.876Z,7.05
2024-01-11T18:23:51.900Z,5.70
2024-01-11T18:26:19.614Z,5.82
2024-01-11T18:28:47.739Z,6.43
2024-01-11T18:31:16.462Z,5.95
2024-01-11T18:33:48.116Z,6.30
2024-01-11T18:36:18.782Z,6.22
2024-01-11T18:38:47.293Z,6.40
2024-01-11T18:41:15.183Z,6.72
2024-01-11T18:43:43.152Z,7.40
2024-01-11T18:46:10.878Z,7.10
2024-01-11T18:48:39.182Z,7.57
2024-01-11T18:51:08.003Z,7.07
2024-01-11T18:53:36.272Z,7.20
2024-01-11T18:56:04.459Z,7.88
2024-01-11T18:58:32.462Z,8.18
2024-01-11T19:03:30.467Z,7.13
2024-01-11T19:05:58.695Z,6.72
2024-01-11T19:08:28.980Z,7.28
2024-01-11T19:10:56.908Z,6.82
2024-01-11T19:13:24.444Z,8.15
2024-01-11T19:15:54.052Z,7.65
2024-01-11T19:18:21.975Z,7.57
2024-01-11T19:20:53.887Z,7.35
2024-01-11T19:23:26.698Z,7.20
2024-01-11T19:25:58.293Z,7.95
2024-01-11T19:28:25.974Z,7.53
2024-01-11T19:30:54.237Z,6.72
2024-01-11T19:33:22.406Z,6.53
2024-01-11T19:35:50.973Z,7.57
2024-01-11T19:38:18.711Z,6.30
2024-01-11T19:40:46.625Z,6.78
2024-01-11T19:43:14.981Z,5.72
2024-01-11T19:45:42.923Z,5.90
2024-01-11T19:48:11.252Z,5.45
2024-01-11T19:50:39.436Z,4.88
2024-01-11T19:53:09.048Z,3.95
2024-01-11T19:55:37.007Z,4.22
2024-01-11T19:58:04.733Z,4.22
2024-01-11T20:00:34.398Z,3.10
2024-01-11T20:03:02.223Z,4.97
2024-01-11T20:05:30.201Z,4.30
2024-01-11T20:07:59.490Z,4.15
2024-01-11T20:10:28.165Z,3.45
2024-01-11T20:12:55.732Z,3.97
2024-01-11T20:15:23.691Z,3.40
2024-01-11T20:17:51.434Z,3.45
2024-01-11T20:20:19.424Z,4.10
2024-01-11T20:22:47.169Z,3.55
2024-01-11T20:25:15.049Z,3.63
2024-01-11T20:27:42.588Z,4.00
2024-01-11T20:30:12.353Z,4.05
2024-01-11T20:32:40.569Z,3.80
2024-01-11T20:35:09.070Z,3.42
2024-01-11T20:37:41.116Z,3.60
2024-01-11T20:40:10.004Z,2.90
2024-01-11T20:42:37.588Z,2.90
2024-01-11T20:45:05.953Z,3.28
2024-01-11T20:47:33.689Z,2.78
2024-01-11T20:50:02.496Z,3.28
2024-01-11T20:52:30.436Z,3.35
2024-01-11T20:54:58.301Z,4.22
2024-01-11T20:57:25.885Z,4.47
2024-01-11T20:59:53.767Z,3.85
2024-01-11T21:02:21.632Z,4.50
2024-01-11T21:04:50.090Z,5.05
2024-01-11T21:07:18.606Z,3.78
2024-01-11T21:09:46.429Z,5.10
2024-01-11T21:12:13.939Z,4.65
2024-01-11T21:14:41.876Z,4.82
2024-01-11T21:17:09.509Z,4.95
2024-01-11T21:19:37.397Z,4.43
2024-01-11T21:22:05.270Z,4.38
2024-01-11T21:24:33.154Z,3.88
2024-01-11T21:27:00.838Z,4.55
2024-01-11T21:29:29.026Z,4.43
2024-01-11T21:31:56.718Z,4.47
2024-01-11T21:34:24.645Z,5.15
2024-01-11T21:36:52.242Z,4.15
2024-01-11T21:39:20.132Z,3.53
2024-01-11T21:41:50.058Z,3.42
2024-01-11T21:44:18.227Z,3.50
2024-01-11T21:46:45.888Z,3.60
2024-01-11T21:49:19.118Z,3.20
2024-01-11T21:51:49.779Z,2.97
2024-01-11T21:54:19.414Z,3.53
2024-01-11T21:56:47.102Z,2.80
2024-01-11T21:59:14.947Z,2.90
2024-01-11T22:01:45.554Z,2.75
2024-01-11T22:04:13.653Z,2.88
2024-01-11T22:06:41.457Z,3.38
2024-01-11T22:09:09.455Z,2.85
2024-01-11T22:11:37.713Z,2.95
2024-01-11T22:14:08.126Z,2.80
2024-01-11T22:16:35.685Z,3.15
2024-01-11T22:19:04.990Z,4.03
2024-01-11T22:21:32.792Z,2.70
2024-01-11T22:24:00.762Z,4.05
2024-01-11T22:26:30.071Z,3.20
2024-01-11T22:28:58.142Z,3.55
2024-01-11T22:31:32.807Z,3.33
2024-01-11T22:34:01.313Z,3.03
2024-01-11T22:36:29.859Z,3.00
2024-01-11T22:38:57.893Z,3.33
2024-01-11T22:41:25.522Z,2.78
2024-01-11T22:43:54.536Z,3.10
2024-01-11T22:46:22.177Z,3.33
2024-01-11T22:48:50.108Z,3.00
2024-01-11T22:51:18.568Z,2.63
2024-01-11T22:53:47.775Z,2.60
2024-01-11T22:56:15.468Z,3.08
2024-01-11T22:58:43.320Z,2.85
2024-01-11T23:01:10.963Z,2.78
2024-01-11T23:03:38.857Z,2.92
2024-01-11T23:06:07.380Z,2.28
2024-01-11T23:08:35.561Z,2.97
2024-01-11T23:11:04.312Z,2.85
2024-01-11T23:13:32.183Z,2.28
2024-01-11T23:15:59.809Z,2.78
2024-01-11T23:18:27.801Z,2.55
2024-01-11T23:20:55.685Z,2.63
2024-01-11T23:23:23.597Z,2.70
2024-01-11T23:25:51.137Z,2.70
2024-01-11T23:28:18.988Z,2.60
2024-01-11T23:30:47.358Z,3.42
2024-01-11T23:33:15.317Z,2.47
2024-01-11T23:35:42.969Z,2.38
2024-01-11T23:38:10.863Z,1.90
2024-01-11T23:40:38.414Z,2.22
2024-01-11T23:43:06.231Z,2.22
2024-01-11T23:45:33.757Z,2.60
2024-01-11T23:48:01.657Z,2.28
2024-01-11T23:50:29.360Z,2.47
2024-01-11T23:52:57.505Z,3.17
2024-01-11T23:55:25.043Z,2.78
2024-01-11T23:57:54.080Z,2.60
